Time;durP1;ratioP1;P1;durP2;ratioP2;P2;SDS_P1;SDS_P2;PMS_P1;PMS_P2;Temp;Humidity;BMP_temperature;BMP_pressure;BME280_temperature;BME280_humidity;BME280_pressure;Samples;Min_cycle;Max_cycle;Signal;HPM_P1;HPM_P2
2023/10/25 00:01:21;;;;;;;2.03;1.57;;;22.10;58.70;;;;;;5055868;28;20550;-67
2023/10/25 00:03:47;;;;;;;1.33;1.20;;;22.10;58.70;;;;;;5055699;28;20778;-66
2023/10/25 00:06:12;;;;;;;1.90;1.70;;;22.10;59.30;;;;;;5055696;28;20216;-66
2023/10/25 00:08:38;;;;;;;1.40;1.30;;;22.10;58.70;;;;;;5055841;28;20195;-66
2023/10/25 00:11:05;;;;;;;1.93;1.70;;;22.10;58.70;;;;;;5055982;28;20173;-66
2023/10/25 00:13:31;;;;;;;2.30;1.70;;;22.20;58.80;;;;;;5056212;28;20266;-68
2023/10/25 00:15:57;;;;;;;1.97;1.60;;;22.20;58.80;;;;;;5053726;28;20456;-66
2023/10/25 00:18:24;;;;;;;1.70;1.57;;;22.10;58.70;;;;;;5055637;28;20449;-66
2023/10/25 00:20:50;;;;;;;1.67;1.40;;;22.10;58.70;;;;;;5056543;28;20175;-66
2023/10/25 00:23:16;;;;;;;1.50;1.40;;;22.10;58.70;;;;;;5059212;28;20420;-67
2023/10/25 00:25:41;;;;;;;2.13;1.57;;;22.10;58.70;;;;;;5059729;28;20920;-67
2023/10/25 00:28:07;;;;;;;2.07;1.77;;;22.10;58.70;;;;;;5059480;28;20175;-66
2023/10/25 00:30:32;;;;;;;2.67;1.70;;;22.10;58.70;;;;;;5059355;28;20207;-66
2023/10/25 00:32:58;;;;;;;1.60;1.30;;;22.10;58.70;;;;;;5059011;28;20179;-67
2023/10/25 00:35:23;;;;;;;1.67;1.30;;;22.10;58.70;;;;;;5059132;28;20237;-67
2023/10/25 00:37:49;;;;;;;1.50;1.40;;;22.20;58.80;;;;;;5058933;28;20202;-66
2023/10/25 00:40:15;;;;;;;2.67;1.80;;;22.10;59.20;;;;;;5059017;28;20209;-66
2023/10/25 00:42:40;;;;;;;1.50;1.40;;;22.10;58.70;;;;;;5058571;28;20187;-66
2023/10/25 00:45:06;;;;;;;1.83;1.53;;;22.10;58.70;;;;;;5058900;28;20296;-66
2023/10/25 00:47:32;;;;;;;2.43;1.60;;;22.10;58.70;;;;;;5059161;28;20205;-67
2023/10/25 00:49:58;;;;;;;1.57;1.43;;;22.10;58.70;;;;;;5058809;28;20409;-66
2023/10/25 00:52:24;;;;;;;1.87;1.57;;;22.20;58.70;;;;;;5059037;28;20440;-67
2023/10/25 00:54:50;;;;;;;1.87;1.40;;;22.10;58.70;;;;;;5058336;28;20950;-66
2023/10/25 00:57:16;;;;;;;2.30;1.47;;;22.10;58.70;;;;;;5059067;28;20274;-66
2023/10/25 00:59:42;;;;;;;1.57;1.40;;;22.10;58.70;;;;;;5059198;28;20440;-67
2023/10/25 01:02:08;;;;;;;1.83;1.53;;;22.10;58.70;;;;;;5057629;28;20182;-66
2023/10/25 01:04:34;;;;;;;3.40;1.40;;;22.10;58.70;;;;;;5058627;28;20194;-66
2023/10/25 01:07:00;;;;;;;1.60;1.17;;;22.10;58.70;;;;;;5058789;28;20456;-67
2023/10/25 01:09:27;;;;;;;1.50;1.40;;;22.10;58.70;;;;;;5058480;28;20425;-66
2023/10/25 01:11:53;;;;;;;1.60;1.50;;;22.10;58.70;;;;;;5059363;28;20182;-65
2023/10/25 01:14:18;;;;;;;1.50;1.30;;;22.10;58.70;;;;;;5058689;28;20429;-67
2023/10/25 01:16:44;;;;;;;1.70;1.30;;;22.10;58.70;;;;;;5058126;28;20566;-66
2023/10/25 01:19:09;;;;;;;2.00;1.47;;;22.10;58.70;;;;;;5058087;28;20201;-65
2023/10/25 01:21:35;;;;;;;1.40;1.30;;;22.10;58.70;;;;;;5058533;28;20733;-67
2023/10/25 01:24:00;;;;;;;1.30;1.20;;;22.10;58.70;;;;;;5058362;28;20185;-65
2023/10/25 01:26:26;;;;;;;1.40;1.30;;;22.10;58.70;;;;;;5058120;28;20302;-67
2023/10/25 01:28:52;;;;;;;1.87;1.20;;;22.10;58.70;;;;;;5058126;28;20167;-66
2023/10/25 01:31:17;;;;;;;1.53;1.43;;;22.10;58.70;;;;;;5058724;28;20159;-67
2023/10/25 01:33:44;;;;;;;1.80;1.40;;;22.10;58.70;;;;;;5057876;28;20174;-66
2023/10/25 01:36:09;;;;;;;1.87;1.67;;;22.10;58.70;;;;;;5058502;28;20195;-66
2023/10/25 01:38:35;;;;;;;1.93;1.47;;;22.10;58.70;;;;;;5058435;28;20405;-68
2023/10/25 01:41:00;;;;;;;1.70;1.23;;;22.10;58.70;;;;;;5058166;28;20171;-66
2023/10/25 01:43:28;;;;;;;1.70;1.40;;;22.10;58.70;;;;;;5058964;28;20977;-67
2023/10/25 01:45:53;;;;;;;1.50;1.40;;;22.10;58.70;;;;;;5058368;28;20198;-67
2023/10/25 01:48:19;;;;;;;1.87;1.13;;;22.10;58.70;;;;;;5058337;28;20405;-66
2023/10/25 01:50:44;;;;;;;1.43;1.33;;;22.10;58.70;;;;;;5058667;28;20259;-66
2023/10/25 01:53:10;;;;;;;2.17;1.50;;;22.10;58.70;;;;;;5058562;28;20205;-67
2023/10/25 01:55:40;;;;;;;1.80;1.40;;;22.10;58.70;;;;;;5058707;28;20195;-66
2023/10/25 01:58:05;;;;;;;2.40;1.50;;;22.10;58.70;;;;;;5057068;28;20179;-67
2023/10/25 02:00:31;;;;;;;2.07;1.23;;;22.10;58.70;;;;;;5057817;28;20495;-67
2023/10/25 02:02:56;;;;;;;1.33;1.13;;;22.10;58.70;;;;;;5057460;28;20175;-67
2023/10/25 02:05:22;;;;;;;1.37;1.27;;;22.10;58.70;;;;;;5056418;28;20218;-66
2023/10/25 02:07:48;;;;;;;1.80;1.70;;;22.10;58.70;;;;;;5057402;28;20176;-66
2023/10/25 02:10:13;;;;;;;1.87;1.40;;;22.10;58.70;;;;;;5057851;28;20178;-66
2023/10/25 02:12:39;;;;;;;2.33;1.27;;;22.10;58.70;;;;;;5058087;28;20609;-67
2023/10/25 02:15:05;;;;;;;1.33;1.17;;;22.10;58.70;;;;;;5058116;28;20277;-67
2023/10/25 02:17:30;;;;;;;1.50;1.33;;;22.10;58.70;;;;;;5058505;28;20182;-67
2023/10/25 02:19:56;;;;;;;1.70;1.50;;;22.10;58.70;;;;;;5058445;28;20496;-67
2023/10/25 02:22:22;;;;;;;1.83;1.50;;;22.10;58.70;;;;;;5057813;28;20179;-67
2023/10/25 02:24:47;;;;;;;1.40;1.30;;;22.10;58.70;;;;;;5057915;28;20202;-67
2023/10/25 02:27:13;;;;;;;1.77;1.47;;;22.10;58.70;;;;;;5057239;28;20229;-67
2023/10/25 02:29:38;;;;;;;1.37;1.23;;;22.10;58.70;;;;;;5057721;28;20167;-67
2023/10/25 02:32:07;;;;;;;1.33;1.17;;;22.10;58.70;;;;;;5057690;28;20167;-66
2023/10/25 02:34:34;;;;;;;3.80;1.53;;;22.10;58.70;;;;;;5057795;28;20187;-66
2023/10/25 02:37:00;;;;;;;1.30;1.20;;;22.10;58.70;;;;;;5057761;28;20425;-67
2023/10/25 02:39:25;;;;;;;1.20;1.10;;;22.10;58.70;;;;;;5057576;28;20417;-66
2023/10/25 02:41:51;;;;;;;1.97;1.47;;;22.10;58.70;;;;;;5057165;28;20178;-65
2023/10/25 02:44:17;;;;;;;1.90;1.40;;;22.10;58.70;;;;;;5057150;28;20282;-67
2023/10/25 02:46:42;;;;;;;1.90;1.33;;;22.10;58.70;;;;;;5057023;28;20289;-66
2023/10/25 02:49:08;;;;;;;1.83;1.23;;;22.10;58.70;;;;;;5057781;28;20591;-66
2023/10/25 02:51:34;;;;;;;1.60;1.20;;;22.10;58.70;;;;;;5057404;28;20205;-65
2023/10/25 02:53:59;;;;;;;2.10;1.80;;;22.10;58.70;;;;;;5057215;28;20163;-67
2023/10/25 02:56:25;;;;;;;1.23;1.13;;;22.10;58.70;;;;;;5057040;28;20414;-66
2023/10/25 02:58:50;;;;;;;2.00;1.30;;;22.10;58.70;;;;;;5057369;28;20229;-67
2023/10/25 03:01:21;;;;;;;1.97;1.50;;;22.10;58.70;;;;;;5057137;28;20552;-66
2023/10/25 03:03:46;;;;;;;2.07;1.53;;;22.10;58.70;;;;;;5057228;28;20725;-67
2023/10/25 03:06:12;;;;;;;1.60;1.30;;;22.10;58.70;;;;;;5057296;28;20504;-67
2023/10/25 03:08:38;;;;;;;3.70;1.97;;;22.10;58.70;;;;;;5056952;28;20179;-67
2023/10/25 03:11:03;;;;;;;1.40;1.10;;;22.10;58.70;;;;;;5057060;28;20233;-67
2023/10/25 03:13:30;;;;;;;1.60;1.20;;;22.10;58.70;;;;;;5057632;28;20206;-66
2023/10/25 03:15:57;;;;;;;1.30;1.10;;;22.10;58.70;;;;;;5057186;28;20701;-66
2023/10/25 03:18:23;;;;;;;1.50;1.40;;;22.10;58.70;;;;;;5057209;28;20437;-66
2023/10/25 03:20:48;;;;;;;1.97;1.30;;;22.10;58.70;;;;;;5057538;28;20417;-66
2023/10/25 03:23:14;;;;;;;1.63;1.53;;;22.10;58.70;;;;;;5056893;28;20179;-66
2023/10/25 03:25:40;;;;;;;1.60;1.30;;;22.10;58.70;;;;;;5057171;28;20202;-66
2023/10/25 03:28:05;;;;;;;2.37;1.60;;;22.10;58.70;;;;;;5056799;28;20175;-67
2023/10/25 03:30:32;;;;;;;2.30;1.50;;;22.10;58.70;;;;;;5056684;28;20182;-66
2023/10/25 03:32:58;;;;;;;1.63;1.30;;;22.10;58.70;;;;;;5056958;28;20723;-66
2023/10/25 03:35:25;;;;;;;1.90;1.30;;;22.10;58.80;;;;;;5056838;28;20452;-66
2023/10/25 03:37:50;;;;;;;2.73;1.77;;;22.10;58.70;;;;;;5056692;28;20171;-66
2023/10/25 03:40:16;;;;;;;1.50;1.40;;;22.10;58.70;;;;;;5056460;28;20409;-66
2023/10/25 03:42:41;;;;;;;1.50;1.00;;;22.10;58.70;;;;;;5055827;28;20278;-68
2023/10/25 03:45:08;;;;;;;2.17;1.50;;;22.10;58.80;;;;;;5056272;28;20191;-67
2023/10/25 03:47:40;;;;;;;2.10;1.50;;;22.00;58.70;;;;;;5056306;28;20213;-66
2023/10/25 03:50:06;;;;;;;1.83;1.30;;;22.00;58.70;;;;;;5056888;28;20420;-68
2023/10/25 03:52:32;;;;;;;1.47;1.30;;;22.00;58.70;;;;;;5056645;28;21078;-67
2023/10/25 03:54:58;;;;;;;1.30;1.20;;;22.00;58.70;;;;;;5056507;28;20441;-67
2023/10/25 03:57:24;;;;;;;2.00;1.80;;;22.10;58.80;;;;;;5059749;28;20175;-67
2023/10/25 03:59:50;;;;;;;2.00;1.70;;;22.00;58.70;;;;;;5060212;28;20186;-66
2023/10/25 04:02:15;;;;;;;1.57;1.23;;;22.00;58.70;;;;;;5060654;28;20417;-66
2023/10/25 04:04:41;;;;;;;1.23;1.13;;;22.00;58.70;;;;;;5060667;28;20548;-66
2023/10/25 04:07:06;;;;;;;2.07;1.60;;;22.10;58.80;;;;;;5060154;28;20254;-67
2023/10/25 04:09:32;;;;;;;2.40;1.53;;;22.00;58.70;;;;;;5060051;28;20175;-66
2023/10/25 04:11:57;;;;;;;1.60;1.30;;;22.10;58.80;;;;;;5060884;28;20612;-66
2023/10/25 04:14:23;;;;;;;1.43;1.17;;;22.00;58.80;;;;;;5060374;28;20191;-66
2023/10/25 04:16:49;;;;;;;1.50;1.40;;;22.00;58.80;;;;;;5060178;28;20178;-66
2023/10/25 04:19:14;;;;;;;1.63;1.10;;;22.00;58.80;;;;;;5060566;28;20659;-67
2023/10/25 04:21:40;;;;;;;1.77;1.10;;;22.00;58.80;;;;;;5059760;28;20189;-66
2023/10/25 04:24:07;;;;;;;1.50;1.40;;;22.00;58.80;;;;;;5060468;28;20195;-67
2023/10/25 04:26:32;;;;;;;1.73;1.33;;;22.10;58.90;;;;;;5060559;28;20452;-67
2023/10/25 04:28:58;;;;;;;1.97;1.40;;;22.10;58.90;;;;;;5059959;28;20491;-67
2023/10/25 04:31:24;;;;;;;1.77;1.30;;;22.10;58.80;;;;;;5059902;28;20662;-67
2023/10/25 04:33:49;;;;;;;1.47;1.30;;;22.00;58.80;;;;;;5059492;28;20266;-66
2023/10/25 04:36:15;;;;;;;1.87;1.50;;;22.00;58.80;;;;;;5059359;28;20677;-66
2023/10/25 04:38:41;;;;;;;1.60;1.40;;;22.00;58.80;;;;;;5055923;28;20270;-66
2023/10/25 04:41:07;;;;;;;1.53;1.30;;;22.10;58.80;;;;;;5039466;28;20306;-66
2023/10/25 04:43:33;;;;;;;1.50;1.40;;;22.00;58.80;;;;;;5037957;28;20464;-66
2023/10/25 04:45:59;;;;;;;2.40;1.33;;;22.00;58.70;;;;;;5037334;28;20207;-66
2023/10/25 04:48:25;;;;;;;2.00;1.30;;;22.00;58.80;;;;;;5038477;28;20638;-68
2023/10/25 04:50:51;;;;;;;2.40;1.37;;;22.00;58.70;;;;;;5039619;28;20406;-67
2023/10/25 04:53:16;;;;;;;1.43;1.20;;;22.10;58.80;;;;;;5039226;28;20187;-66
2023/10/25 04:55:46;;;;;;;1.50;1.00;;;22.10;58.80;;;;;;5039628;28;20226;-67
2023/10/25 04:58:12;;;;;;;1.30;1.20;;;22.00;58.70;;;;;;5039363;28;20224;-66
2023/10/25 05:00:37;;;;;;;1.30;1.20;;;22.00;58.70;;;;;;5040239;28;20992;-66
2023/10/25 05:03:05;;;;;;;1.40;1.20;;;22.00;58.70;;;;;;5038373;28;20445;-67
2023/10/25 05:05:32;;;;;;;2.67;1.20;;;22.00;58.80;;;;;;5038884;28;20191;-66
2023/10/25 05:07:59;;;;;;;1.87;1.53;;;22.00;58.80;;;;;;5038687;28;20906;-67
2023/10/25 05:10:25;;;;;;;1.70;1.27;;;22.00;58.80;;;;;;5036397;28;20448;-65
2023/10/25 05:12:51;;;;;;;1.17;1.00;;;22.00;58.70;;;;;;5036307;28;20472;-68
2023/10/25 05:15:18;;;;;;;1.30;1.17;;;22.00;58.80;;;;;;5037336;28;20426;-66
2023/10/25 05:17:46;;;;;;;1.50;1.33;;;22.00;58.70;;;;;;5035654;28;20184;-67
2023/10/25 05:20:13;;;;;;;1.20;1.10;;;22.00;58.70;;;;;;5036705;28;20453;-66
2023/10/25 05:22:40;;;;;;;2.83;1.60;;;22.00;58.70;;;;;;5037150;28;20406;-67
2023/10/25 05:25:08;;;;;;;1.20;1.07;;;22.00;58.70;;;;;;5037227;28;20970;-67
2023/10/25 05:27:35;;;;;;;2.10;1.40;;;22.00;58.70;;;;;;5036963;28;20541;-66
2023/10/25 05:30:07;;;;;;;2.93;1.13;;;22.00;58.70;;;;;;5036679;28;20411;-67
2023/10/25 05:32:34;;;;;;;2.07;1.27;;;22.00;58.70;;;;;;5036793;28;20395;-67
2023/10/25 05:35:02;;;;;;;1.20;1.10;;;22.00;58.70;;;;;;5036558;28;20472;-66
2023/10/25 05:37:29;;;;;;;1.87;1.47;;;22.10;58.80;;;;;;5036946;28;20433;-66
2023/10/25 05:39:56;;;;;;;1.80;1.40;;;22.00;58.70;;;;;;5036665;28;20407;-66
2023/10/25 05:42:23;;;;;;;1.60;1.23;;;22.00;58.70;;;;;;5036417;28;20410;-67
2023/10/25 05:44:56;;;;;;;16.43;2.10;;;22.00;58.70;;;;;;5036746;28;20508;-65
2023/10/25 05:47:23;;;;;;;2.20;1.47;;;22.00;58.70;;;;;;5036559;28;20455;-66
2023/10/25 05:49:49;;;;;;;1.57;1.43;;;22.00;58.70;;;;;;5036424;28;20414;-66
2023/10/25 05:52:16;;;;;;;1.67;1.20;;;22.00;58.70;;;;;;5036007;28;20411;-67
2023/10/25 05:54:42;;;;;;;1.97;1.27;;;22.00;58.70;;;;;;5035478;28;20504;-65
2023/10/25 05:57:08;;;;;;;1.60;1.30;;;22.00;58.70;;;;;;5036453;28;20414;-67
2023/10/25 05:59:34;;;;;;;2.60;1.43;;;22.00;58.70;;;;;;5036441;28;20777;-65
2023/10/25 06:02:11;;;;;;;2.37;1.40;;;22.00;58.70;;;;;;5035953;28;20413;-67
2023/10/25 06:04:38;;;;;;;1.53;1.13;;;22.00;58.70;;;;;;5034629;28;20438;-66
2023/10/25 06:07:06;;;;;;;1.57;1.10;;;22.00;58.70;;;;;;5035764;28;20457;-67
2023/10/25 06:09:32;;;;;;;2.13;1.27;;;22.00;58.70;;;;;;5036060;28;20460;-66
2023/10/25 06:11:58;;;;;;;1.57;1.37;;;22.00;58.70;;;;;;5035868;28;20403;-67
2023/10/25 06:14:24;;;;;;;1.20;1.10;;;22.00;58.80;;;;;;5035766;28;20484;-67
2023/10/25 06:16:49;;;;;;;2.03;1.20;;;22.00;58.70;;;;;;5036235;28;20175;-66
2023/10/25 06:19:15;;;;;;;2.40;1.20;;;22.00;58.70;;;;;;5035855;28;20476;-67
2023/10/25 06:21:41;;;;;;;1.40;1.30;;;22.00;58.70;;;;;;5036625;28;20187;-67
2023/10/25 06:24:07;;;;;;;1.53;1.10;;;22.00;58.70;;;;;;5035858;28;20176;-66
2023/10/25 06:26:32;;;;;;;1.30;1.20;;;22.00;58.70;;;;;;5035117;28;20279;-67
2023/10/25 06:28:58;;;;;;;1.20;1.10;;;22.00;58.70;;;;;;5035027;28;20418;-66
2023/10/25 06:31:24;;;;;;;1.63;1.53;;;22.00;58.70;;;;;;5035837;28;20650;-67
2023/10/25 06:33:49;;;;;;;1.40;1.00;;;22.00;58.70;;;;;;5035001;28;20415;-64
2023/10/25 06:36:16;;;;;;;1.13;1.03;;;22.00;58.70;;;;;;5035752;28;20195;-66
2023/10/25 06:38:42;;;;;;;2.60;1.17;;;22.00;58.70;;;;;;5035621;28;20183;-65
2023/10/25 06:41:18;;;;;;;1.90;1.20;;;22.00;58.70;;;;;;5035637;28;20441;-65
2023/10/25 06:43:44;;;;;;;5.00;1.90;;;22.00;58.70;;;;;;5035488;28;20422;-65
2023/10/25 06:46:11;;;;;;;1.20;1.10;;;22.00;58.70;;;;;;5035578;28;20481;-66
2023/10/25 06:48:40;;;;;;;1.77;1.10;;;22.00;58.70;;;;;;5035078;28;20457;-67
2023/10/25 06:51:07;;;;;;;1.30;1.20;;;22.00;58.70;;;;;;5035119;28;20398;-65
2023/10/25 06:53:33;;;;;;;1.47;1.10;;;22.00;58.70;;;;;;5035181;28;20410;-67
2023/10/25 06:55:59;;;;;;;3.83;1.63;;;22.00;58.70;;;;;;5035206;28;20813;-67
2023/10/25 06:58:25;;;;;;;3.13;1.70;;;22.10;58.80;;;;;;5035038;28;20412;-67
2023/10/25 07:00:56;;;;;;;2.10;1.20;;;22.00;58.70;;;;;;5034902;28;20456;-68
2023/10/25 07:03:30;;;;;;;1.17;1.07;;;22.00;58.70;;;;;;5035120;28;20409;-66
2023/10/25 07:05:57;;;;;;;3.37;1.30;;;22.00;59.20;;;;;;5034956;28;20496;-67
2023/10/25 07:08:22;;;;;;;3.77;1.70;;;22.00;58.70;;;;;;5034639;28;20415;-67
2023/10/25 07:10:48;;;;;;;1.77;1.50;;;22.00;58.70;;;;;;5035553;28;20484;-67
2023/10/25 07:13:13;;;;;;;2.53;1.67;;;22.00;58.70;;;;;;5033308;28;20542;-67
2023/10/25 07:15:39;;;;;;;2.33;1.20;;;22.00;58.70;;;;;;5034693;28;20275;-67
2023/10/25 07:18:05;;;;;;;1.73;1.03;;;22.00;58.70;;;;;;5034571;28;20183;-65
2023/10/25 07:20:31;;;;;;;1.43;1.30;;;22.00;58.70;;;;;;5033345;28;20199;-67
2023/10/25 07:22:57;;;;;;;1.70;1.33;;;22.00;58.70;;;;;;5033946;28;20171;-66
2023/10/25 07:25:22;;;;;;;1.40;1.10;;;22.00;58.70;;;;;;5045315;28;20503;-68
2023/10/25 07:27:48;;;;;;;1.23;1.13;;;22.10;58.80;;;;;;5032287;28;20230;-66
2023/10/25 07:30:13;;;;;;;1.77;1.40;;;22.00;58.70;;;;;;5032495;28;20313;-67
2023/10/25 07:32:40;;;;;;;1.30;1.10;;;22.10;58.90;;;;;;5032190;28;20164;-68
2023/10/25 07:35:05;;;;;;;3.93;1.50;;;22.00;58.70;;;;;;5032718;28;20215;-66
2023/10/25 07:37:32;;;;;;;3.03;1.60;;;22.00;58.70;;;;;;5034039;28;20418;-67
2023/10/25 07:39:57;;;;;;;1.93;1.20;;;22.00;59.20;;;;;;5034194;28;20286;-67
2023/10/25 07:42:23;;;;;;;3.50;1.60;;;22.00;58.70;;;;;;5034804;28;20442;-66
2023/10/25 07:44:49;;;;;;;1.40;1.30;;;22.00;58.70;;;;;;5034455;28;20203;-66
2023/10/25 07:47:14;;;;;;;1.43;1.17;;;22.00;58.70;;;;;;5034358;28;20200;-68
2023/10/25 07:49:45;;;;;;;5.07;1.30;;;22.00;58.70;;;;;;5033469;28;20168;-67
2023/10/25 07:52:11;;;;;;;1.87;1.10;;;22.10;58.80;;;;;;5034332;28;20148;-68
2023/10/25 07:54:37;;;;;;;2.80;1.37;;;22.00;58.80;;;;;;5034526;28;20533;-64
2023/10/25 07:57:03;;;;;;;1.40;1.20;;;22.00;58.80;;;;;;5033621;28;20434;-66
2023/10/25 07:59:29;;;;;;;1.50;1.20;;;22.10;58.80;;;;;;5015391;28;20187;-67
2023/10/25 08:01:57;;;;;;;1.40;1.10;;;22.00;58.80;;;;;;5033399;28;20186;-67
2023/10/25 08:04:22;;;;;;;3.40;1.20;;;22.10;58.80;;;;;;5031201;28;20582;-68
2023/10/25 08:06:48;;;;;;;1.43;1.07;;;22.10;58.90;;;;;;5031043;28;20476;-68
2023/10/25 08:09:14;;;;;;;2.27;1.50;;;22.00;58.80;;;;;;5032429;28;20221;-67
2023/10/25 08:11:39;;;;;;;1.90;1.40;;;22.00;58.80;;;;;;5032536;28;20172;-68
2023/10/25 08:14:05;;;;;;;2.90;1.57;;;22.00;58.80;;;;;;5032429;28;20278;-67
2023/10/25 08:16:32;;;;;;;2.13;1.47;;;22.00;58.70;;;;;;5032484;28;20183;-67
2023/10/25 08:18:58;;;;;;;2.40;1.53;;;22.10;58.80;;;;;;5032364;28;20434;-68
2023/10/25 08:21:23;;;;;;;1.80;1.30;;;22.00;58.70;;;;;;5032538;28;20425;-67
2023/10/25 08:23:54;;;;;;;1.53;1.30;;;22.00;58.70;;;;;;5032547;28;20183;-67
2023/10/25 08:26:21;;;;;;;3.77;1.23;;;22.10;58.80;;;;;;5032230;28;20214;-67
2023/10/25 08:28:47;;;;;;;3.67;1.20;;;22.10;58.80;;;;;;5032302;28;20517;-68
2023/10/25 08:31:14;;;;;;;1.97;1.30;;;22.00;58.70;;;;;;5032416;28;20501;-68
2023/10/25 08:33:40;;;;;;;4.90;1.50;;;22.10;58.70;;;;;;5032381;28;20410;-67
2023/10/25 08:36:06;;;;;;;2.60;1.10;;;22.00;58.70;;;;;;5032024;28;20983;-67
2023/10/25 08:38:31;;;;;;;3.77;1.13;;;22.10;58.70;;;;;;5032611;28;20418;-67
2023/10/25 08:41:07;;;;;;;3.10;1.43;;;22.00;58.70;;;;;;5032427;28;20417;-68
2023/10/25 08:43:34;;;;;;;2.00;1.30;;;22.10;58.70;;;;;;5035334;28;20254;-68
2023/10/25 08:46:04;;;;;;;2.80;1.33;;;22.00;58.70;;;;;;5035668;28;21065;-69
2023/10/25 08:48:31;;;;;;;1.40;1.10;;;22.10;58.70;;;;;;5036035;28;20402;-67
2023/10/25 08:50:58;;;;;;;1.77;1.20;;;22.00;58.70;;;;;;5035659;28;20437;-67
2023/10/25 08:53:28;;;;;;;1.97;1.40;;;22.10;58.70;;;;;;5035231;28;20421;-67
2023/10/25 08:55:56;;;;;;;2.07;1.30;;;22.10;58.70;;;;;;5035601;28;20437;-67
2023/10/25 08:58:25;;;;;;;1.40;1.20;;;22.00;58.70;;;;;;5035123;28;20943;-67
2023/10/25 09:00:51;;;;;;;2.33;2.13;;;22.00;58.60;;;;;;5035318;28;20472;-68
2023/10/25 09:03:32;;;;;;;2.20;1.03;;;22.00;58.70;;;;;;5035135;28;20450;-67
2023/10/25 09:06:02;;;;;;;2.80;1.37;;;22.00;58.70;;;;;;5035120;28;20903;-66
2023/10/25 09:08:28;;;;;;;1.70;1.37;;;22.10;58.70;;;;;;5034937;28;21075;-68
2023/10/25 09:11:00;;;;;;;1.63;1.07;;;22.00;58.70;;;;;;5035581;28;20758;-66
2023/10/25 09:13:26;;;;;;;1.50;1.23;;;22.00;58.70;;;;;;5035641;28;20498;-67
2023/10/25 09:15:52;;;;;;;2.43;1.17;;;22.00;58.70;;;;;;5034822;28;20530;-67
2023/10/25 09:18:17;;;;;;;5.90;1.80;;;22.10;58.70;;;;;;5034885;28;20187;-67
2023/10/25 09:20:49;;;;;;;2.30;1.30;;;22.10;58.80;;;;;;5034006;28;20267;-67
2023/10/25 09:23:15;;;;;;;1.30;1.20;;;22.00;58.70;;;;;;5035049;28;20172;-68
2023/10/25 09:25:41;;;;;;;2.20;1.47;;;22.00;58.60;;;;;;5035198;28;20727;-68
2023/10/25 09:28:15;;;;;;;2.00;1.20;;;22.10;58.70;;;;;;5035604;28;20418;-66
2023/10/25 09:30:42;;;;;;;1.53;1.43;;;22.10;58.70;;;;;;5034995;28;20158;-67
2023/10/25 09:33:08;;;;;;;2.87;1.30;;;22.00;58.70;;;;;;5034670;28;20446;-68
2023/10/25 09:35:34;;;;;;;1.70;1.30;;;22.00;58.70;;;;;;5034493;28;20449;-68
2023/10/25 09:37:59;;;;;;;1.60;1.30;;;22.00;58.70;;;;;;5034803;28;20171;-65
2023/10/25 09:40:26;;;;;;;1.90;1.53;;;22.00;58.70;;;;;;5035162;28;20415;-67
2023/10/25 09:42:58;;;;;;;2.10;1.40;;;22.00;58.60;;;;;;5033425;28;20183;-68
2023/10/25 09:45:31;;;;;;;1.77;1.30;;;22.10;58.70;;;;;;5034860;28;20802;-68
2023/10/25 09:48:04;;;;;;;2.47;1.40;;;22.00;58.70;;;;;;5035005;28;20529;-68
2023/10/25 09:50:36;;;;;;;2.90;1.40;;;22.10;58.70;;;;;;5034451;28;20404;-66
2023/10/25 09:53:14;;;;;;;3.20;1.50;;;22.10;58.70;;;;;;5034599;28;20405;-67
2023/10/25 09:55:45;;;;;;;1.83;1.20;;;22.00;58.60;;;;;;5032864;28;20434;-68
2023/10/25 09:58:12;;;;;;;2.43;1.27;;;22.00;58.70;;;;;;5034097;28;20458;-68
2023/10/25 10:00:38;;;;;;;1.10;1.00;;;22.10;58.70;;;;;;5034237;28;20437;-67
2023/10/25 10:03:32;;;;;;;1.87;1.20;;;22.00;58.70;;;;;;5033268;28;20504;-67
2023/10/25 10:06:22;;;;;;;1.87;1.43;;;22.00;58.70;;;;;;5013408;28;20211;-67
2023/10/25 10:08:59;;;;;;;2.00;1.30;;;22.00;58.70;;;;;;5033680;28;20401;-66
2023/10/25 10:11:31;;;;;;;2.07;1.20;;;22.00;58.80;;;;;;5033234;28;20394;-67
2023/10/25 10:14:35;;;;;;;2.70;1.70;;;22.10;59.00;;;;;;5033123;28;20471;-67
2023/10/25 10:17:13;;;;;;;1.60;1.47;;;22.10;58.80;;;;;;5033400;28;20425;-68
2023/10/25 10:19:41;;;;;;;4.33;1.50;;;22.10;58.80;;;;;;5033130;28;20426;-68
2023/10/25 10:22:13;;;;;;;3.10;1.30;;;22.00;58.70;;;;;;5031472;28;20868;-66
2023/10/25 10:24:46;;;;;;;2.10;1.37;;;22.00;58.90;;;;;;5031460;28;20513;-67
2023/10/25 10:27:23;;;;;;;1.43;1.13;;;22.10;58.90;;;;;;5031511;28;20856;-68
2023/10/25 10:29:49;;;;;;;4.63;1.50;;;22.10;58.80;;;;;;5031469;28;20472;-67
2023/10/25 10:32:17;;;;;;;5.93;1.60;;;22.10;58.80;;;;;;5031376;28;20502;-66
2023/10/25 10:34:48;;;;;;;2.17;1.20;;;22.10;58.70;;;;;;5031129;28;20462;-66
2023/10/25 10:37:22;;;;;;;3.20;1.40;;;22.10;58.70;;;;;;5031186;28;20549;-66
2023/10/25 10:39:56;;;;;;;2.33;1.43;;;22.10;58.70;;;;;;5031392;28;20394;-65
2023/10/25 10:42:41;;;;;;;2.23;1.17;;;22.10;58.70;;;;;;5031354;28;20468;-68
2023/10/25 10:45:12;;;;;;;2.37;1.53;;;22.10;58.70;;;;;;5031222;28;20508;-67
2023/10/25 10:47:50;;;;;;;2.60;1.20;;;22.10;58.70;;;;;;5031041;28;20442;-66
2023/10/25 10:50:21;;;;;;;4.47;1.30;;;22.10;58.70;;;;;;5031066;28;20406;-67
2023/10/25 10:52:48;;;;;;;1.57;1.47;;;22.10;58.70;;;;;;5030949;28;20448;-68
2023/10/25 10:55:15;;;;;;;3.07;1.40;;;22.10;58.70;;;;;;5030931;28;20430;-65
2023/10/25 10:57:41;;;;;;;2.00;1.27;;;22.10;58.80;;;;;;5030017;28;20422;-67
2023/10/25 11:00:09;;;;;;;1.60;1.20;;;22.10;58.70;;;;;;5031113;28;20911;-65
2023/10/25 11:02:36;;;;;;;4.20;1.40;;;22.10;58.70;;;;;;5031017;28;20199;-67
2023/10/25 11:05:03;;;;;;;2.33;1.40;;;22.10;58.70;;;;;;5030932;28;20453;-67
2023/10/25 11:07:29;;;;;;;2.17;1.33;;;22.10;58.70;;;;;;5030945;28;20467;-67
2023/10/25 11:09:55;;;;;;;2.50;1.23;;;22.10;58.80;;;;;;5030611;28;21080;-68
2023/10/25 11:12:20;;;;;;;3.60;1.70;;;22.10;58.70;;;;;;5030435;28;20167;-67
2023/10/25 11:14:47;;;;;;;2.80;1.50;;;22.10;58.70;;;;;;5030771;28;20490;-67
2023/10/25 11:17:13;;;;;;;2.97;1.50;;;22.10;58.70;;;;;;5030785;28;20194;-67
2023/10/25 11:19:40;;;;;;;3.33;1.50;;;22.10;58.80;;;;;;5030694;28;20877;-66
2023/10/25 11:22:06;;;;;;;5.00;1.73;;;22.10;58.80;;;;;;5030636;28;20419;-65
2023/10/25 11:24:35;;;;;;;3.90;1.40;;;22.10;58.80;;;;;;5030601;28;21020;-67
2023/10/25 11:27:01;;;;;;;5.40;3.30;;;22.10;58.70;;;;;;5030170;28;20221;-67
2023/10/25 11:29:27;;;;;;;3.10;2.73;;;22.10;58.70;;;;;;5030530;28;20452;-67
2023/10/25 11:31:55;;;;;;;4.80;3.93;;;22.10;58.70;;;;;;5030461;28;20823;-66
2023/10/25 11:34:21;;;;;;;4.63;3.73;;;22.10;58.70;;;;;;5030584;28;20195;-66
2023/10/25 11:36:48;;;;;;;7.30;5.00;;;22.20;58.90;;;;;;5030227;28;20421;-67
2023/10/25 11:39:13;;;;;;;4.33;3.60;;;22.10;58.80;;;;;;5030601;28;20948;-67
2023/10/25 11:41:39;;;;;;;5.30;2.90;;;22.10;58.80;;;;;;5030343;28;20402;-68
2023/10/25 11:44:06;;;;;;;6.33;3.37;;;22.10;58.80;;;;;;5030190;28;20187;-67
2023/10/25 11:46:41;;;;;;;5.10;4.13;;;22.10;58.80;;;;;;5051047;28;20348;-67
2023/10/25 11:49:07;;;;;;;5.47;3.73;;;22.10;58.80;;;;;;5038372;28;20412;-67
2023/10/25 11:51:34;;;;;;;3.83;3.43;;;22.10;58.80;;;;;;5039693;28;20422;-67
2023/10/25 11:54:04;;;;;;;4.33;3.80;;;22.10;58.80;;;;;;5039040;28;20421;-67
2023/10/25 11:56:29;;;;;;;7.40;4.80;;;22.20;58.90;;;;;;5039526;28;20418;-68
2023/10/25 11:58:55;;;;;;;5.63;4.10;;;22.10;59.40;;;;;;5039856;28;20413;-68
2023/10/25 12:01:21;;;;;;;5.97;4.20;;;22.20;58.90;;;;;;5040842;28;20178;-68
2023/10/25 12:03:46;;;;;;;6.50;4.60;;;22.10;58.80;;;;;;5038827;28;20266;-67
2023/10/25 12:06:12;;;;;;;6.77;5.13;;;22.10;58.80;;;;;;5039824;28;20194;-67
2023/10/25 12:08:41;;;;;;;5.70;5.10;;;22.10;58.80;;;;;;5040461;28;20725;-67
2023/10/25 12:11:11;;;;;;;4.87;4.33;;;22.10;58.70;;;;;;5038917;28;20701;-67
2023/10/25 12:13:41;;;;;;;7.70;5.00;;;22.10;58.80;;;;;;5039189;28;20405;-67
2023/10/25 12:16:07;;;;;;;7.50;5.60;;;22.20;58.80;;;;;;5039190;28;20437;-67
2023/10/25 12:18:35;;;;;;;7.57;5.07;;;22.10;58.70;;;;;;5042875;28;20532;-68
2023/10/25 12:21:05;;;;;;;9.10;5.47;;;22.10;58.70;;;;;;5042955;28;20414;-67
2023/10/25 12:23:32;;;;;;;7.27;5.00;;;22.10;58.80;;;;;;5040332;28;20410;-67
2023/10/25 12:25:58;;;;;;;7.10;4.60;;;22.20;58.80;;;;;;5033868;28;20429;-67
2023/10/25 12:28:24;;;;;;;8.40;5.33;;;22.10;58.80;;;;;;5033868;28;20425;-66
2023/10/25 12:30:50;;;;;;;6.90;5.97;;;22.10;58.80;;;;;;5033769;28;20501;-67
2023/10/25 12:33:16;;;;;;;5.83;5.07;;;22.10;58.80;;;;;;5033701;28;20222;-68
2023/10/25 12:35:42;;;;;;;7.90;6.07;;;22.20;58.80;;;;;;5033571;28;20446;-67
2023/10/25 12:38:08;;;;;;;7.43;5.80;;;22.10;58.70;;;;;;5034063;28;20186;-67
2023/10/25 12:40:34;;;;;;;6.93;5.20;;;22.10;58.70;;;;;;5034170;28;20417;-67
2023/10/25 12:42:59;;;;;;;7.87;6.37;;;22.10;58.80;;;;;;5033633;28;20410;-67
2023/10/25 12:45:25;;;;;;;6.70;6.00;;;22.10;58.70;;;;;;5033446;28;20195;-67
2023/10/25 12:47:51;;;;;;;7.27;6.27;;;22.10;58.70;;;;;;5033521;28;20203;-67